New Dawn — WDB9910 — position and weather

sailwx.info

Track history (hours):
 
Tides and Currents Weather Stations Pressure Air Temp Water Temp Dewpoint Dewpoint Depression Visibility Wind Speed Wind Dir Waves Ship Positions

New Dawn

Owner: American River Transportation Company, St Louis, MO. More information available from US FCC via Universal Licensing System and Coast Guard Vessel Documentation Center.

Last reported at 2017-Apr-25 07:34 UTC. Time now 2017-Apr-30 14:47 UTC.
Position N 38°52' W 090°33'.

Type: Towing. MMSI: 366984950.

Date/timePositionNaut miles runAvg speedWind from/ knotsBaromVisibWave heightAir tempDewpointWater temp
2017-Apr-25 07:34N 38°52' W 090°33'1 3.9
2017-Apr-25 07:21N 38°53' W 090°32'2 4.1
2017-Apr-25 06:58N 38°54' W 090°31'2 4.3
2017-Apr-25 06:30N 38°56' W 090°30'2 4.2
2017-Apr-25 06:00N 38°57' W 090°28'2 3.3
2017-Apr-25 05:30N 38°58' W 090°26'2 4.9
2017-Apr-25 05:00N 38°57' W 090°23'3 5.3
2017-Apr-25 04:30N 38°56' W 090°20'2 3.1
2017-Apr-25 04:00N 38°55' W 090°18'3 4.8
2017-Apr-25 03:29N 38°55' W 090°15'2 4.7
2017-Apr-25 03:00N 38°54' W 090°12'3 0.1
2017-Apr-24 01:12N 38°52' W 090°09'1 5.7
2017-Apr-24 00:56N 38°53' W 090°11'3 7.0
2017-Apr-24 00:30N 38°55' W 090°14'4 7.6
2017-Apr-24 00:00N 38°55' W 090°19'4 7.8
2017-Apr-23 23:30N 38°57' W 090°23'4 7.4
2017-Apr-23 23:01N 38°57' W 090°28'4 7.1
2017-Apr-23 22:30N 38°55' W 090°31'  
Track history (hours):
 
Tides and Currents Weather Stations Pressure Air Temp Water Temp Dewpoint Dewpoint Depression Visibility Wind Speed Wind Dir Waves Ship Positions

New Dawn

Owner: American River Transportation Company, St Louis, MO. More information available from US FCC via Universal Licensing System and Coast Guard Vessel Documentation Center.

Last reported at 2017-Apr-25 07:34 UTC. Time now 2017-Apr-30 14:47 UTC.
Position N 38°52' W 090°33'.

Type: Towing. MMSI: 366984950.

Date/timePositionNaut miles runAvg speedWind from/ knotsBaromVisibWave heightAir tempDewpointWater temp
2017-Apr-25 07:34N 38°52' W 090°33'1 3.9
2017-Apr-25 07:21N 38°53' W 090°32'2 4.1
2017-Apr-25 06:58N 38°54' W 090°31'2 4.3
2017-Apr-25 06:30N 38°56' W 090°30'2 4.2
2017-Apr-25 06:00N 38°57' W 090°28'2 3.3
2017-Apr-25 05:30N 38°58' W 090°26'2 4.9
2017-Apr-25 05:00N 38°57' W 090°23'3 5.3
2017-Apr-25 04:30N 38°56' W 090°20'2 3.1
2017-Apr-25 04:00N 38°55' W 090°18'3 4.8
2017-Apr-25 03:29N 38°55' W 090°15'2 4.7
2017-Apr-25 03:00N 38°54' W 090°12'3 0.1
2017-Apr-24 01:12N 38°52' W 090°09'1 5.7
2017-Apr-24 00:56N 38°53' W 090°11'3 7.0
2017-Apr-24 00:30N 38°55' W 090°14'4 7.6
2017-Apr-24 00:00N 38°55' W 090°19'4 7.8
2017-Apr-23 23:30N 38°57' W 090°23'4 7.4
2017-Apr-23 23:01N 38°57' W 090°28'4 7.1
2017-Apr-23 22:30N 38°55' W 090°31'  

Dump ship's entire track history